Aviation Digital Data Service (ADDS)

Output produced by METARs form (1754 UTC 24 August 2016)
found at http://aviationweather.gov/adds/metars/
 
KRDU 241726Z 2418/2518 11005KT P6SM SCT050 BKN250 
     FM250100 15004KT P6SM SCT250